sensor_id;sensor_type;location;lat;lon;timestamp;temperature;humidity
52036;DHT22;38046;49.448;32.074;2023-05-29T00:00:16;17.40;59.20
52036;DHT22;38046;49.448;32.074;2023-05-29T00:02:49;17.40;59.20
52036;DHT22;38046;49.448;32.074;2023-05-29T00:05:16;17.40;59.20
52036;DHT22;38046;49.448;32.074;2023-05-29T00:07:42;17.40;59.30
52036;DHT22;38046;49.448;32.074;2023-05-29T00:10:10;17.30;59.40
52036;DHT22;38046;49.448;32.074;2023-05-29T00:12:36;17.30;59.70
52036;DHT22;38046;49.448;32.074;2023-05-29T00:15:02;17.30;60.10
52036;DHT22;38046;49.448;32.074;2023-05-29T00:17:31;17.30;59.70
52036;DHT22;38046;49.448;32.074;2023-05-29T00:20:01;17.30;59.90
52036;DHT22;38046;49.448;32.074;2023-05-29T00:22:28;17.20;60.20
52036;DHT22;38046;49.448;32.074;2023-05-29T00:24:54;17.20;60.10
52036;DHT22;38046;49.448;32.074;2023-05-29T00:27:20;17.20;60.00
52036;DHT22;38046;49.448;32.074;2023-05-29T00:29:46;17.20;60.10
52036;DHT22;38046;49.448;32.074;2023-05-29T00:32:11;17.20;60.00
52036;DHT22;38046;49.448;32.074;2023-05-29T00:34:37;17.10;60.00
52036;DHT22;38046;49.448;32.074;2023-05-29T00:37:03;17.20;60.00
52036;DHT22;38046;49.448;32.074;2023-05-29T00:39:29;17.10;60.00
52036;DHT22;38046;49.448;32.074;2023-05-29T00:41:56;17.10;60.20
52036;DHT22;38046;49.448;32.074;2023-05-29T00:44:22;17.10;60.20
52036;DHT22;38046;49.448;32.074;2023-05-29T00:46:49;17.10;60.60
52036;DHT22;38046;49.448;32.074;2023-05-29T00:49:17;17.10;60.20
52036;DHT22;38046;49.448;32.074;2023-05-29T00:51:43;17.10;60.20
52036;DHT22;38046;49.448;32.074;2023-05-29T00:54:12;17.00;60.00
52036;DHT22;38046;49.448;32.074;2023-05-29T00:56:41;17.00;60.20
52036;DHT22;38046;49.448;32.074;2023-05-29T00:59:13;17.10;60.30
52036;DHT22;38046;49.448;32.074;2023-05-29T01:01:39;17.00;60.60
52036;DHT22;38046;49.448;32.074;2023-05-29T01:04:06;17.00;60.50
52036;DHT22;38046;49.448;32.074;2023-05-29T01:06:33;17.00;60.40
52036;DHT22;38046;49.448;32.074;2023-05-29T01:08:58;17.00;60.50
52036;DHT22;38046;49.448;32.074;2023-05-29T01:17:28;16.90;61.40
52036;DHT22;38046;49.448;32.074;2023-05-29T01:20:08;16.90;60.90
52036;DHT22;38046;49.448;32.074;2023-05-29T01:22:58;16.90;60.70
52036;DHT22;38046;49.448;32.074;2023-05-29T01:25:46;16.90;60.80
52036;DHT22;38046;49.448;32.074;2023-05-29T01:28:16;16.90;60.70
52036;DHT22;38046;49.448;32.074;2023-05-29T01:30:45;16.90;60.90
52036;DHT22;38046;49.448;32.074;2023-05-29T01:33:11;16.90;61.00
52036;DHT22;38046;49.448;32.074;2023-05-29T01:35:37;16.90;60.80
52036;DHT22;38046;49.448;32.074;2023-05-29T01:38:03;16.90;60.90
52036;DHT22;38046;49.448;32.074;2023-05-29T01:40:28;16.90;61.10
52036;DHT22;38046;49.448;32.074;2023-05-29T01:42:54;17.00;61.20
52036;DHT22;38046;49.448;32.074;2023-05-29T01:45:20;17.00;60.90
52036;DHT22;38046;49.448;32.074;2023-05-29T01:47:46;17.10;60.80
52036;DHT22;38046;49.448;32.074;2023-05-29T01:50:15;17.10;60.60
52036;DHT22;38046;49.448;32.074;2023-05-29T01:52:43;17.10;60.60
52036;DHT22;38046;49.448;32.074;2023-05-29T01:55:09;17.20;60.60
52036;DHT22;38046;49.448;32.074;2023-05-29T01:57:35;17.20;60.50
52036;DHT22;38046;49.448;32.074;2023-05-29T02:00:03;17.20;60.20
52036;DHT22;38046;49.448;32.074;2023-05-29T02:02:39;17.20;59.80
52036;DHT22;38046;49.448;32.074;2023-05-29T02:05:06;17.30;60.00
52036;DHT22;38046;49.448;32.074;2023-05-29T02:07:33;17.30;60.00
52036;DHT22;38046;49.448;32.074;2023-05-29T02:09:59;17.30;59.80
52036;DHT22;38046;49.448;32.074;2023-05-29T02:12:25;17.30;59.80
52036;DHT22;38046;49.448;32.074;2023-05-29T02:14:51;17.30;59.70
52036;DHT22;38046;49.448;32.074;2023-05-29T02:17:17;17.30;59.40
52036;DHT22;38046;49.448;32.074;2023-05-29T02:19:44;17.40;59.40
52036;DHT22;38046;49.448;32.074;2023-05-29T02:22:10;17.40;59.40
52036;DHT22;38046;49.448;32.074;2023-05-29T02:24:36;17.40;59.50
52036;DHT22;38046;49.448;32.074;2023-05-29T02:27:01;17.40;60.20
52036;DHT22;38046;49.448;32.074;2023-05-29T02:29:28;17.40;59.70
52036;DHT22;38046;49.448;32.074;2023-05-29T02:31:54;17.40;59.50
52036;DHT22;38046;49.448;32.074;2023-05-29T02:34:19;17.40;59.40
52036;DHT22;38046;49.448;32.074;2023-05-29T02:36:48;17.40;59.40
52036;DHT22;38046;49.448;32.074;2023-05-29T02:39:14;17.50;59.50
52036;DHT22;38046;49.448;32.074;2023-05-29T02:41:39;17.50;59.40
52036;DHT22;38046;49.448;32.074;2023-05-29T02:44:05;17.50;59.10
52036;DHT22;38046;49.448;32.074;2023-05-29T02:46:31;17.50;59.20
52036;DHT22;38046;49.448;32.074;2023-05-29T02:48:56;17.60;59.60
52036;DHT22;38046;49.448;32.074;2023-05-29T02:51:22;17.60;59.70
52036;DHT22;38046;49.448;32.074;2023-05-29T02:53:47;17.60;59.40
52036;DHT22;38046;49.448;32.074;2023-05-29T02:56:14;17.60;59.60
52036;DHT22;38046;49.448;32.074;2023-05-29T02:58:41;17.70;59.60
52036;DHT22;38046;49.448;32.074;2023-05-29T03:01:07;17.70;59.60
52036;DHT22;38046;49.448;32.074;2023-05-29T03:03:33;17.70;59.60
52036;DHT22;38046;49.448;32.074;2023-05-29T03:05:58;17.80;59.40
52036;DHT22;38046;49.448;32.074;2023-05-29T03:08:26;17.80;58.90
52036;DHT22;38046;49.448;32.074;2023-05-29T03:10:53;17.90;59.00
52036;DHT22;38046;49.448;32.074;2023-05-29T03:13:19;17.90;59.00
52036;DHT22;38046;49.448;32.074;2023-05-29T03:15:45;17.90;59.10
52036;DHT22;38046;49.448;32.074;2023-05-29T03:18:11;18.00;58.80
52036;DHT22;38046;49.448;32.074;2023-05-29T03:20:37;18.00;58.40
52036;DHT22;38046;49.448;32.074;2023-05-29T03:23:02;18.10;58.20
52036;DHT22;38046;49.448;32.074;2023-05-29T03:25:28;18.10;58.20
52036;DHT22;38046;49.448;32.074;2023-05-29T03:27:54;18.20;58.50
52036;DHT22;38046;49.448;32.074;2023-05-29T03:30:22;18.30;58.10
52036;DHT22;38046;49.448;32.074;2023-05-29T03:32:47;18.30;58.00
52036;DHT22;38046;49.448;32.074;2023-05-29T03:35:13;18.40;57.60
52036;DHT22;38046;49.448;32.074;2023-05-29T03:37:38;18.50;57.20
52036;DHT22;38046;49.448;32.074;2023-05-29T03:40:04;18.60;57.20
52036;DHT22;38046;49.448;32.074;2023-05-29T03:42:30;18.60;56.90
52036;DHT22;38046;49.448;32.074;2023-05-29T03:44:59;18.70;56.90
52036;DHT22;38046;49.448;32.074;2023-05-29T03:47:24;18.80;57.00
52036;DHT22;38046;49.448;32.074;2023-05-29T03:49:50;18.90;57.20
52036;DHT22;38046;49.448;32.074;2023-05-29T03:52:16;19.10;56.90
52036;DHT22;38046;49.448;32.074;2023-05-29T03:54:42;19.40;56.60
52036;DHT22;38046;49.448;32.074;2023-05-29T03:57:10;20.00;56.00
52036;DHT22;38046;49.448;32.074;2023-05-29T03:59:35;20.50;54.90
52036;DHT22;38046;49.448;32.074;2023-05-29T04:02:02;21.10;54.10
52036;DHT22;38046;49.448;32.074;2023-05-29T04:04:28;21.60;53.50
52036;DHT22;38046;49.448;32.074;2023-05-29T04:06:53;22.20;52.30
52036;DHT22;38046;49.448;32.074;2023-05-29T04:09:19;22.80;51.60
52036;DHT22;38046;49.448;32.074;2023-05-29T04:11:45;23.30;50.50
52036;DHT22;38046;49.448;32.074;2023-05-29T04:14:11;23.80;49.50
52036;DHT22;38046;49.448;32.074;2023-05-29T04:16:37;24.30;48.40
52036;DHT22;38046;49.448;32.074;2023-05-29T04:19:02;24.50;48.00
52036;DHT22;38046;49.448;32.074;2023-05-29T04:21:29;24.60;47.80
52036;DHT22;38046;49.448;32.074;2023-05-29T04:23:54;24.80;47.80
52036;DHT22;38046;49.448;32.074;2023-05-29T04:26:22;25.20;47.50
52036;DHT22;38046;49.448;32.074;2023-05-29T04:28:51;25.50;47.30
52036;DHT22;38046;49.448;32.074;2023-05-29T04:31:18;26.10;46.90
52036;DHT22;38046;49.448;32.074;2023-05-29T04:33:43;26.80;45.90
52036;DHT22;38046;49.448;32.074;2023-05-29T04:36:10;27.40;45.20
52036;DHT22;38046;49.448;32.074;2023-05-29T04:38:36;27.90;44.50
52036;DHT22;38046;49.448;32.074;2023-05-29T04:41:02;28.30;44.00
52036;DHT22;38046;49.448;32.074;2023-05-29T04:43:28;28.70;43.40
52036;DHT22;38046;49.448;32.074;2023-05-29T04:45:53;29.20;43.00
52036;DHT22;38046;49.448;32.074;2023-05-29T04:48:19;29.50;42.50
52036;DHT22;38046;49.448;32.074;2023-05-29T04:50:45;29.90;42.40
52036;DHT22;38046;49.448;32.074;2023-05-29T04:53:11;30.30;41.90
52036;DHT22;38046;49.448;32.074;2023-05-29T04:55:36;30.70;41.50
52036;DHT22;38046;49.448;32.074;2023-05-29T04:58:02;31.10;41.20
52036;DHT22;38046;49.448;32.074;2023-05-29T05:00:28;31.60;40.50
52036;DHT22;38046;49.448;32.074;2023-05-29T05:02:53;31.90;40.20
52036;DHT22;38046;49.448;32.074;2023-05-29T05:05:19;32.20;39.70
52036;DHT22;38046;49.448;32.074;2023-05-29T05:07:45;32.40;39.40
52036;DHT22;38046;49.448;32.074;2023-05-29T05:10:11;32.70;38.90
52036;DHT22;38046;49.448;32.074;2023-05-29T05:12:37;32.80;38.60
52036;DHT22;38046;49.448;32.074;2023-05-29T05:15:03;33.00;38.50
52036;DHT22;38046;49.448;32.074;2023-05-29T05:17:29;33.20;38.00
52036;DHT22;38046;49.448;32.074;2023-05-29T05:19:54;33.40;37.80
52036;DHT22;38046;49.448;32.074;2023-05-29T05:22:20;33.30;37.60
52036;DHT22;38046;49.448;32.074;2023-05-29T05:24:46;33.00;37.30
52036;DHT22;38046;49.448;32.074;2023-05-29T05:27:11;32.50;37.40
52036;DHT22;38046;49.448;32.074;2023-05-29T05:29:37;31.80;37.80
52036;DHT22;38046;49.448;32.074;2023-05-29T05:32:03;31.10;38.30
52036;DHT22;38046;49.448;32.074;2023-05-29T05:34:29;30.40;38.80
52036;DHT22;38046;49.448;32.074;2023-05-29T05:36:55;29.60;39.30
52036;DHT22;38046;49.448;32.074;2023-05-29T05:39:20;28.90;40.10
52036;DHT22;38046;49.448;32.074;2023-05-29T05:41:46;28.40;41.30
52036;DHT22;38046;49.448;32.074;2023-05-29T05:44:12;27.90;41.60
52036;DHT22;38046;49.448;32.074;2023-05-29T05:46:37;27.40;41.60
52036;DHT22;38046;49.448;32.074;2023-05-29T05:49:03;26.90;41.90
52036;DHT22;38046;49.448;32.074;2023-05-29T05:51:28;26.50;42.60
52036;DHT22;38046;49.448;32.074;2023-05-29T05:53:54;26.20;43.00
52036;DHT22;38046;49.448;32.074;2023-05-29T05:56:20;25.90;43.50
52036;DHT22;38046;49.448;32.074;2023-05-29T05:58:45;25.60;44.10
52036;DHT22;38046;49.448;32.074;2023-05-29T06:01:11;25.40;44.50
52036;DHT22;38046;49.448;32.074;2023-05-29T06:03:36;25.20;44.80
52036;DHT22;38046;49.448;32.074;2023-05-29T06:06:03;25.10;45.10
52036;DHT22;38046;49.448;32.074;2023-05-29T06:08:29;24.90;45.70
52036;DHT22;38046;49.448;32.074;2023-05-29T06:10:55;24.80;45.90
52036;DHT22;38046;49.448;32.074;2023-05-29T06:13:20;24.70;45.80
52036;DHT22;38046;49.448;32.074;2023-05-29T06:15:46;24.60;45.90
52036;DHT22;38046;49.448;32.074;2023-05-29T06:18:12;24.40;46.10
52036;DHT22;38046;49.448;32.074;2023-05-29T06:20:38;24.30;46.30
52036;DHT22;38046;49.448;32.074;2023-05-29T06:23:03;24.20;46.80
52036;DHT22;38046;49.448;32.074;2023-05-29T06:25:29;24.10;47.30
52036;DHT22;38046;49.448;32.074;2023-05-29T06:28:01;24.10;47.60
52036;DHT22;38046;49.448;32.074;2023-05-29T06:30:28;24.00;47.30
52036;DHT22;38046;49.448;32.074;2023-05-29T06:32:54;23.90;47.50
52036;DHT22;38046;49.448;32.074;2023-05-29T06:35:19;23.80;47.80
52036;DHT22;38046;49.448;32.074;2023-05-29T06:37:46;23.80;47.70
52036;DHT22;38046;49.448;32.074;2023-05-29T06:40:13;23.70;47.50
52036;DHT22;38046;49.448;32.074;2023-05-29T06:42:38;23.60;47.70
52036;DHT22;38046;49.448;32.074;2023-05-29T06:45:04;23.60;47.70
52036;DHT22;38046;49.448;32.074;2023-05-29T06:47:30;23.50;47.60
52036;DHT22;38046;49.448;32.074;2023-05-29T06:49:56;23.40;47.80
52036;DHT22;38046;49.448;32.074;2023-05-29T06:52:22;23.40;47.90
52036;DHT22;38046;49.448;32.074;2023-05-29T06:54:48;23.30;48.00
52036;DHT22;38046;49.448;32.074;2023-05-29T06:57:13;23.30;48.30
52036;DHT22;38046;49.448;32.074;2023-05-29T06:59:39;23.30;48.50
52036;DHT22;38046;49.448;32.074;2023-05-29T07:02:05;23.20;48.80
52036;DHT22;38046;49.448;32.074;2023-05-29T07:04:31;23.20;48.70
52036;DHT22;38046;49.448;32.074;2023-05-29T07:06:56;23.20;48.70
52036;DHT22;38046;49.448;32.074;2023-05-29T07:09:22;23.10;48.90
52036;DHT22;38046;49.448;32.074;2023-05-29T07:11:47;23.10;49.70
52036;DHT22;38046;49.448;32.074;2023-05-29T07:14:13;23.10;49.40
52036;DHT22;38046;49.448;32.074;2023-05-29T07:16:39;23.00;49.20
52036;DHT22;38046;49.448;32.074;2023-05-29T07:19:05;23.00;49.50
52036;DHT22;38046;49.448;32.074;2023-05-29T07:21:30;23.00;49.70
52036;DHT22;38046;49.448;32.074;2023-05-29T07:23:56;23.00;49.50
52036;DHT22;38046;49.448;32.074;2023-05-29T07:26:22;22.90;49.40
52036;DHT22;38046;49.448;32.074;2023-05-29T07:28:48;22.90;49.60
52036;DHT22;38046;49.448;32.074;2023-05-29T07:31:14;22.90;49.60
52036;DHT22;38046;49.448;32.074;2023-05-29T07:33:40;22.90;50.00
52036;DHT22;38046;49.448;32.074;2023-05-29T07:36:07;22.90;49.90
52036;DHT22;38046;49.448;32.074;2023-05-29T07:38:33;22.90;50.20
52036;DHT22;38046;49.448;32.074;2023-05-29T07:40:58;22.90;50.20
52036;DHT22;38046;49.448;32.074;2023-05-29T07:43:24;22.90;50.00
52036;DHT22;38046;49.448;32.074;2023-05-29T07:45:49;22.90;50.30
52036;DHT22;38046;49.448;32.074;2023-05-29T07:48:15;22.90;50.70
52036;DHT22;38046;49.448;32.074;2023-05-29T07:50:40;22.80;51.40
52036;DHT22;38046;49.448;32.074;2023-05-29T07:53:06;22.80;50.30
52036;DHT22;38046;49.448;32.074;2023-05-29T07:55:33;22.90;50.20
52036;DHT22;38046;49.448;32.074;2023-05-29T07:57:59;22.90;50.50
52036;DHT22;38046;49.448;32.074;2023-05-29T08:00:25;22.90;50.60
52036;DHT22;38046;49.448;32.074;2023-05-29T08:02:51;22.90;50.40
52036;DHT22;38046;49.448;32.074;2023-05-29T08:05:17;22.80;50.30
52036;DHT22;38046;49.448;32.074;2023-05-29T08:07:43;22.80;50.40
52036;DHT22;38046;49.448;32.074;2023-05-29T08:10:09;22.80;50.60
52036;DHT22;38046;49.448;32.074;2023-05-29T08:12:35;22.90;51.40
52036;DHT22;38046;49.448;32.074;2023-05-29T08:15:02;22.90;50.80
52036;DHT22;38046;49.448;32.074;2023-05-29T08:17:27;22.80;51.20
52036;DHT22;38046;49.448;32.074;2023-05-29T08:19:53;22.90;51.10
52036;DHT22;38046;49.448;32.074;2023-05-29T08:22:19;22.90;51.30
52036;DHT22;38046;49.448;32.074;2023-05-29T08:24:44;22.90;51.40
52036;DHT22;38046;49.448;32.074;2023-05-29T08:27:10;22.90;51.80
52036;DHT22;38046;49.448;32.074;2023-05-29T08:29:35;22.90;52.80
52036;DHT22;38046;49.448;32.074;2023-05-29T08:32:02;22.90;52.00
52036;DHT22;38046;49.448;32.074;2023-05-29T08:34:28;22.90;52.00
52036;DHT22;38046;49.448;32.074;2023-05-29T08:36:54;22.90;52.00
52036;DHT22;38046;49.448;32.074;2023-05-29T08:39:20;22.90;52.20
52036;DHT22;38046;49.448;32.074;2023-05-29T08:42:04;22.90;51.90
52036;DHT22;38046;49.448;32.074;2023-05-29T08:44:33;22.90;52.20
52036;DHT22;38046;49.448;32.074;2023-05-29T08:47:02;22.90;52.40
52036;DHT22;38046;49.448;32.074;2023-05-29T08:49:40;22.90;53.00
52036;DHT22;38046;49.448;32.074;2023-05-29T08:52:19;22.90;52.90
52036;DHT22;38046;49.448;32.074;2023-05-29T08:54:46;22.90;53.00
52036;DHT22;38046;49.448;32.074;2023-05-29T08:57:12;22.90;53.00
52036;DHT22;38046;49.448;32.074;2023-05-29T08:59:41;22.90;53.30
52036;DHT22;38046;49.448;32.074;2023-05-29T09:02:08;22.80;53.00
52036;DHT22;38046;49.448;32.074;2023-05-29T09:04:33;22.80;52.90
52036;DHT22;38046;49.448;32.074;2023-05-29T09:06:59;22.80;53.10
52036;DHT22;38046;49.448;32.074;2023-05-29T09:09:28;22.80;53.00
52036;DHT22;38046;49.448;32.074;2023-05-29T09:11:56;22.80;53.00
52036;DHT22;38046;49.448;32.074;2023-05-29T09:14:40;22.80;53.60
52036;DHT22;38046;49.448;32.074;2023-05-29T09:17:07;22.70;53.80
52036;DHT22;38046;49.448;32.074;2023-05-29T09:19:34;22.70;53.60
52036;DHT22;38046;49.448;32.074;2023-05-29T09:22:11;22.70;53.70
52036;DHT22;38046;49.448;32.074;2023-05-29T09:24:47;22.70;54.00
52036;DHT22;38046;49.448;32.074;2023-05-29T09:27:13;22.70;54.50
52036;DHT22;38046;49.448;32.074;2023-05-29T09:29:40;22.70;54.10
52036;DHT22;38046;49.448;32.074;2023-05-29T09:32:12;22.80;54.00
52036;DHT22;38046;49.448;32.074;2023-05-29T09:34:38;22.80;54.40
52036;DHT22;38046;49.448;32.074;2023-05-29T09:37:06;22.80;54.40
52036;DHT22;38046;49.448;32.074;2023-05-29T09:42:08;22.90;55.00
52036;DHT22;38046;49.448;32.074;2023-05-29T09:44:34;23.00;54.80
52036;DHT22;38046;49.448;32.074;2023-05-29T09:47:00;23.10;54.70
52036;DHT22;38046;49.448;32.074;2023-05-29T09:49:26;23.10;54.60
52036;DHT22;38046;49.448;32.074;2023-05-29T09:51:56;23.20;54.20
52036;DHT22;38046;49.448;32.074;2023-05-29T09:54:27;23.20;54.10
52036;DHT22;38046;49.448;32.074;2023-05-29T09:56:54;23.30;54.20
52036;DHT22;38046;49.448;32.074;2023-05-29T09:59:23;23.30;54.20
52036;DHT22;38046;49.448;32.074;2023-05-29T10:02:02;23.30;53.70
52036;DHT22;38046;49.448;32.074;2023-05-29T10:04:30;23.40;54.00
52036;DHT22;38046;49.448;32.074;2023-05-29T10:07:02;23.40;53.40
52036;DHT22;38046;49.448;32.074;2023-05-29T10:09:29;23.30;53.40
52036;DHT22;38046;49.448;32.074;2023-05-29T10:11:55;23.40;53.60
52036;DHT22;38046;49.448;32.074;2023-05-29T10:14:25;23.40;53.20
52036;DHT22;38046;49.448;32.074;2023-05-29T10:16:56;23.30;53.10
52036;DHT22;38046;49.448;32.074;2023-05-29T10:19:29;23.30;53.40
52036;DHT22;38046;49.448;32.074;2023-05-29T10:21:56;23.30;54.40
52036;DHT22;38046;49.448;32.074;2023-05-29T10:24:24;23.30;54.20
52036;DHT22;38046;49.448;32.074;2023-05-29T10:26:50;23.30;54.50
52036;DHT22;38046;49.448;32.074;2023-05-29T10:34:44;23.30;54.80
52036;DHT22;38046;49.448;32.074;2023-05-29T10:39:37;23.30;54.20
52036;DHT22;38046;49.448;32.074;2023-05-29T10:42:02;23.30;54.40
52036;DHT22;38046;49.448;32.074;2023-05-29T10:47:01;23.40;54.50
52036;DHT22;38046;49.448;32.074;2023-05-29T10:49:28;23.40;55.30
52036;DHT22;38046;49.448;32.074;2023-05-29T10:51:54;23.40;55.40
52036;DHT22;38046;49.448;32.074;2023-05-29T10:54:22;23.50;54.70
52036;DHT22;38046;49.448;32.074;2023-05-29T10:57:00;23.50;54.50
52036;DHT22;38046;49.448;32.074;2023-05-29T10:59:26;23.50;54.50
52036;DHT22;38046;49.448;32.074;2023-05-29T11:01:54;23.60;55.20
52036;DHT22;38046;49.448;32.074;2023-05-29T11:06:46;23.60;55.30
52036;DHT22;38046;49.448;32.074;2023-05-29T11:09:31;23.60;55.20
52036;DHT22;38046;49.448;32.074;2023-05-29T11:15:14;23.60;53.70
52036;DHT22;38046;49.448;32.074;2023-05-29T11:20:07;23.60;54.00
52036;DHT22;38046;49.448;32.074;2023-05-29T11:25:14;23.60;54.80
52036;DHT22;38046;49.448;32.074;2023-05-29T11:27:41;23.60;55.20
52036;DHT22;38046;49.448;32.074;2023-05-29T11:30:08;23.60;55.80
52036;DHT22;38046;49.448;32.074;2023-05-29T11:32:36;23.60;55.60
52036;DHT22;38046;49.448;32.074;2023-05-29T11:35:08;23.60;55.30
52036;DHT22;38046;49.448;32.074;2023-05-29T11:37:35;23.60;55.60
52036;DHT22;38046;49.448;32.074;2023-05-29T11:40:05;23.60;55.70
52036;DHT22;38046;49.448;32.074;2023-05-29T11:42:31;23.60;55.60
52036;DHT22;38046;49.448;32.074;2023-05-29T11:45:33;23.60;55.50
52036;DHT22;38046;49.448;32.074;2023-05-29T11:48:02;23.70;55.30
52036;DHT22;38046;49.448;32.074;2023-05-29T11:50:30;23.60;56.00
52036;DHT22;38046;49.448;32.074;2023-05-29T11:52:57;23.60;55.30
52036;DHT22;38046;49.448;32.074;2023-05-29T11:55:23;23.60;55.10
52036;DHT22;38046;49.448;32.074;2023-05-29T11:58:00;23.60;55.40
52036;DHT22;38046;49.448;32.074;2023-05-29T12:00:33;23.50;55.70
52036;DHT22;38046;49.448;32.074;2023-05-29T12:02:59;23.60;56.30
52036;DHT22;38046;49.448;32.074;2023-05-29T12:05:33;23.50;55.70
52036;DHT22;38046;49.448;32.074;2023-05-29T12:08:09;23.50;55.80
52036;DHT22;38046;49.448;32.074;2023-05-29T12:10:35;23.40;55.70
52036;DHT22;38046;49.448;32.074;2023-05-29T12:13:00;23.50;55.90
52036;DHT22;38046;49.448;32.074;2023-05-29T12:15:27;23.50;55.80
52036;DHT22;38046;49.448;32.074;2023-05-29T12:17:53;23.50;55.60
52036;DHT22;38046;49.448;32.074;2023-05-29T12:20:22;23.50;56.30
52036;DHT22;38046;49.448;32.074;2023-05-29T12:22:49;23.50;55.60
52036;DHT22;38046;49.448;32.074;2023-05-29T12:25:16;23.50;55.40
52036;DHT22;38046;49.448;32.074;2023-05-29T12:27:44;23.50;55.30
52036;DHT22;38046;49.448;32.074;2023-05-29T12:32:53;23.50;55.80
52036;DHT22;38046;49.448;32.074;2023-05-29T12:35:29;23.50;54.30
52036;DHT22;38046;49.448;32.074;2023-05-29T12:37:56;23.50;53.60
52036;DHT22;38046;49.448;32.074;2023-05-29T12:40:24;23.50;53.50
52036;DHT22;38046;49.448;32.074;2023-05-29T12:43:01;23.40;53.70
52036;DHT22;38046;49.448;32.074;2023-05-29T12:45:32;23.40;54.50
52036;DHT22;38046;49.448;32.074;2023-05-29T12:48:06;23.40;55.00
52036;DHT22;38046;49.448;32.074;2023-05-29T12:50:39;23.40;55.00
52036;DHT22;38046;49.448;32.074;2023-05-29T12:53:12;23.40;55.10
52036;DHT22;38046;49.448;32.074;2023-05-29T12:55:40;23.40;55.70
52036;DHT22;38046;49.448;32.074;2023-05-29T12:58:13;23.40;56.00
52036;DHT22;38046;49.448;32.074;2023-05-29T13:00:40;23.40;56.30
52036;DHT22;38046;49.448;32.074;2023-05-29T13:03:06;23.40;56.70
52036;DHT22;38046;49.448;32.074;2023-05-29T13:05:33;23.40;56.20
52036;DHT22;38046;49.448;32.074;2023-05-29T13:07:59;23.40;56.40
52036;DHT22;38046;49.448;32.074;2023-05-29T13:10:25;23.40;56.20
52036;DHT22;38046;49.448;32.074;2023-05-29T13:12:53;23.40;56.00
52036;DHT22;38046;49.448;32.074;2023-05-29T13:15:24;23.30;55.90
52036;DHT22;38046;49.448;32.074;2023-05-29T13:17:51;23.40;56.00
52036;DHT22;38046;49.448;32.074;2023-05-29T13:20:18;23.40;55.60
52036;DHT22;38046;49.448;32.074;2023-05-29T13:22:46;23.40;55.30
52036;DHT22;38046;49.448;32.074;2023-05-29T13:25:13;23.40;54.80
52036;DHT22;38046;49.448;32.074;2023-05-29T13:27:43;23.40;55.00
52036;DHT22;38046;49.448;32.074;2023-05-29T13:30:10;23.30;54.50
52036;DHT22;38046;49.448;32.074;2023-05-29T13:32:36;23.30;53.90
52036;DHT22;38046;49.448;32.074;2023-05-29T13:35:02;23.30;54.10
52036;DHT22;38046;49.448;32.074;2023-05-29T13:37:28;23.20;54.20
52036;DHT22;38046;49.448;32.074;2023-05-29T13:39:54;23.20;54.60
52036;DHT22;38046;49.448;32.074;2023-05-29T13:42:20;23.20;55.20
52036;DHT22;38046;49.448;32.074;2023-05-29T13:44:47;23.20;54.80
52036;DHT22;38046;49.448;32.074;2023-05-29T13:47:13;23.20;54.80
52036;DHT22;38046;49.448;32.074;2023-05-29T13:49:38;23.20;54.90
52036;DHT22;38046;49.448;32.074;2023-05-29T13:52:05;23.20;55.20
52036;DHT22;38046;49.448;32.074;2023-05-29T13:54:31;23.20;54.90
52036;DHT22;38046;49.448;32.074;2023-05-29T13:57:01;23.20;54.30
52036;DHT22;38046;49.448;32.074;2023-05-29T13:59:27;23.10;54.10
52036;DHT22;38046;49.448;32.074;2023-05-29T14:01:53;23.10;53.80
52036;DHT22;38046;49.448;32.074;2023-05-29T14:04:18;23.10;53.80
52036;DHT22;38046;49.448;32.074;2023-05-29T14:06:44;23.10;53.70
52036;DHT22;38046;49.448;32.074;2023-05-29T14:09:10;23.10;53.50
52036;DHT22;38046;49.448;32.074;2023-05-29T14:11:39;23.10;53.40
52036;DHT22;38046;49.448;32.074;2023-05-29T14:14:05;23.10;53.20
52036;DHT22;38046;49.448;32.074;2023-05-29T14:16:31;23.20;53.10
52036;DHT22;38046;49.448;32.074;2023-05-29T14:18:57;23.10;53.00
52036;DHT22;38046;49.448;32.074;2023-05-29T14:21:23;23.10;53.10
52036;DHT22;38046;49.448;32.074;2023-05-29T14:23:48;23.10;53.40
52036;DHT22;38046;49.448;32.074;2023-05-29T14:26:14;23.10;53.30
52036;DHT22;38046;49.448;32.074;2023-05-29T14:28:39;23.00;53.30
52036;DHT22;38046;49.448;32.074;2023-05-29T14:31:05;23.00;53.40
52036;DHT22;38046;49.448;32.074;2023-05-29T14:33:31;23.10;53.60
52036;DHT22;38046;49.448;32.074;2023-05-29T14:35:57;23.10;53.80
52036;DHT22;38046;49.448;32.074;2023-05-29T14:38:23;23.10;53.90
52036;DHT22;38046;49.448;32.074;2023-05-29T14:40:49;23.10;54.20
52036;DHT22;38046;49.448;32.074;2023-05-29T14:43:14;23.00;54.00
52036;DHT22;38046;49.448;32.074;2023-05-29T14:45:40;23.10;53.50
52036;DHT22;38046;49.448;32.074;2023-05-29T14:48:06;23.10;53.50
52036;DHT22;38046;49.448;32.074;2023-05-29T14:50:32;23.10;53.40
52036;DHT22;38046;49.448;32.074;2023-05-29T14:52:57;23.10;53.30
52036;DHT22;38046;49.448;32.074;2023-05-29T14:55:23;23.20;53.10
52036;DHT22;38046;49.448;32.074;2023-05-29T14:57:48;23.20;53.20
52036;DHT22;38046;49.448;32.074;2023-05-29T15:00:14;23.20;53.30
52036;DHT22;38046;49.448;32.074;2023-05-29T15:02:40;23.20;53.20
52036;DHT22;38046;49.448;32.074;2023-05-29T15:05:06;23.20;53.40
52036;DHT22;38046;49.448;32.074;2023-05-29T15:07:32;23.20;53.20
52036;DHT22;38046;49.448;32.074;2023-05-29T15:10:02;23.20;52.70
52036;DHT22;38046;49.448;32.074;2023-05-29T15:12:27;23.10;52.30
52036;DHT22;38046;49.448;32.074;2023-05-29T15:14:53;23.10;52.30
52036;DHT22;38046;49.448;32.074;2023-05-29T15:17:19;23.10;52.30
52036;DHT22;38046;49.448;32.074;2023-05-29T15:19:44;23.10;52.30
52036;DHT22;38046;49.448;32.074;2023-05-29T15:22:10;23.00;52.40
52036;DHT22;38046;49.448;32.074;2023-05-29T15:24:36;23.00;52.60
52036;DHT22;38046;49.448;32.074;2023-05-29T15:27:02;23.00;52.90
52036;DHT22;38046;49.448;32.074;2023-05-29T15:29:34;23.00;52.80
52036;DHT22;38046;49.448;32.074;2023-05-29T15:32:00;23.00;52.80
52036;DHT22;38046;49.448;32.074;2023-05-29T15:34:25;23.00;53.00
52036;DHT22;38046;49.448;32.074;2023-05-29T15:36:51;23.00;52.80
52036;DHT22;38046;49.448;32.074;2023-05-29T15:39:16;23.00;52.80
52036;DHT22;38046;49.448;32.074;2023-05-29T15:41:42;23.00;52.90
52036;DHT22;38046;49.448;32.074;2023-05-29T15:44:08;23.00;52.80
52036;DHT22;38046;49.448;32.074;2023-05-29T15:46:33;23.00;53.10